Time;durP1;ratioP1;P1;durP2;ratioP2;P2;SDS_P1;SDS_P2;PMS_P1;PMS_P2;Temp;Humidity;BMP_temperature;BMP_pressure;BME280_temperature;BME280_humidity;BME280_pressure;Samples;Min_cycle;Max_cycle;Signal;HPM_P1;HPM_P2
2021/06/13 08:11:31;;;;;;;10.50;2.92;;;23.80;51.60;;;;;;5108034;27;20132;-64
2021/06/13 08:13:57;;;;;;;8.07;2.42;;;23.50;50.20;;;;;;5088432;28;20028;-63
2021/06/13 08:16:23;;;;;;;8.52;2.95;;;23.20;50.60;;;;;;5092101;28;20071;-67
2021/06/13 08:18:48;;;;;;;7.65;2.70;;;22.70;52.20;;;;;;5086054;28;20032;-66
2021/06/13 08:21:14;;;;;;;7.20;2.35;;;22.70;53.00;;;;;;5079119;28;20078;-67
2021/06/13 08:23:40;;;;;;;8.90;2.67;;;23.00;50.50;;;;;;5084966;28;20031;-67
2021/06/13 08:26:05;;;;;;;7.13;2.65;;;23.20;49.80;;;;;;5101384;28;20027;-67
2021/06/13 08:28:31;;;;;;;6.47;2.13;;;23.20;48.80;;;;;;5090329;28;20103;-66
2021/06/13 08:30:57;;;;;;;7.43;2.22;;;23.20;48.20;;;;;;5082134;28;20028;-65
2021/06/13 08:33:23;;;;;;;8.15;2.60;;;23.20;47.70;;;;;;5096400;28;20115;-65
2021/06/13 08:35:49;;;;;;;7.15;2.22;;;23.20;47.10;;;;;;5098811;28;20032;-64
2021/06/13 08:38:15;;;;;;;7.53;2.15;;;23.40;48.40;;;;;;5085654;28;20024;-65
2021/06/13 08:40:41;;;;;;;9.75;2.47;;;23.50;50.00;;;;;;5084770;28;20530;-64
2021/06/13 08:43:07;;;;;;;6.90;2.08;;;23.60;50.10;;;;;;5106688;28;20047;-63
2021/06/13 08:45:34;;;;;;;7.07;2.13;;;23.80;49.30;;;;;;5104041;28;20625;-64
2021/06/13 08:48:00;;;;;;;8.88;2.47;;;23.80;49.10;;;;;;5101257;28;20035;-65
2021/06/13 08:50:27;;;;;;;7.13;2.53;;;23.80;48.80;;;;;;5088050;28;20110;-64
2021/06/13 08:52:53;;;;;;;7.13;2.40;;;23.80;48.80;;;;;;5088794;28;20019;-63
2021/06/13 08:55:21;;;;;;;7.47;2.33;;;23.90;48.80;;;;;;5089076;28;20025;-63
2021/06/13 08:57:48;;;;;;;7.13;2.00;;;23.90;49.20;;;;;;5089690;28;20027;-63
2021/06/13 09:00:16;;;;;;;6.03;2.33;;;24.00;50.30;;;;;;5088431;28;20043;-64
2021/06/13 09:02:43;;;;;;;5.22;2.30;;;24.00;49.40;;;;;;5089789;28;20451;-63
2021/06/13 09:05:10;;;;;;;6.00;2.20;;;24.00;49.20;;;;;;5087298;28;20518;-64
2021/06/13 09:07:45;;;;;;;6.78;2.10;;;24.10;48.70;;;;;;5087514;28;20028;-64
2021/06/13 09:10:11;;;;;;;8.02;2.47;;;24.10;48.40;;;;;;5088408;28;20028;-64
2021/06/13 09:12:37;;;;;;;6.10;2.17;;;24.10;48.50;;;;;;5090415;28;20081;-64
2021/06/13 09:15:05;;;;;;;5.50;2.28;;;24.20;48.50;;;;;;5085744;28;20048;-64
2021/06/13 09:17:30;;;;;;;7.30;2.28;;;24.20;48.50;;;;;;5083359;28;20024;-63
2021/06/13 09:20:09;;;;;;;5.35;2.15;;;24.20;48.90;;;;;;5086138;28;20392;-64
2021/06/13 09:22:36;;;;;;;7.45;2.00;;;24.10;50.30;;;;;;5078956;28;20116;-63
2021/06/13 09:25:13;;;;;;;6.43;2.67;;;24.00;51.20;;;;;;5075282;28;20489;-64
2021/06/13 09:27:40;;;;;;;4.10;1.98;;;24.20;51.20;;;;;;5072412;28;20137;-63
2021/06/13 09:30:09;;;;;;;5.32;1.80;;;24.30;49.10;;;;;;5074255;28;20027;-64
2021/06/13 09:33:17;;;;;;;6.28;1.90;;;24.40;49.70;;;;;;5072369;28;20017;-63
2021/06/13 09:35:44;;;;;;;6.47;1.97;;;24.40;48.70;;;;;;5071864;28;20031;-63
2021/06/13 09:38:17;;;;;;;5.55;2.03;;;24.50;48.20;;;;;;5074485;28;20061;-63
2021/06/13 09:40:49;;;;;;;5.18;1.77;;;24.50;47.80;;;;;;5072665;28;21113;-63
2021/06/13 09:43:18;;;;;;;6.38;1.85;;;24.50;47.60;;;;;;5073299;28;20021;-63
2021/06/13 09:45:49;;;;;;;4.75;1.80;;;24.60;47.60;;;;;;5072710;28;20028;-63
2021/06/13 09:48:16;;;;;;;5.93;1.80;;;24.60;47.30;;;;;;5074046;28;20100;-64
2021/06/13 09:50:51;;;;;;;6.45;1.90;;;24.70;46.10;;;;;;5074543;28;20029;-63
2021/06/13 09:53:19;;;;;;;6.00;2.17;;;24.70;46.10;;;;;;5071218;28;20504;-60
2021/06/13 09:55:45;;;;;;;6.05;2.15;;;24.60;46.00;;;;;;5074863;28;20028;-63
2021/06/13 09:58:13;;;;;;;6.07;2.15;;;24.70;46.70;;;;;;5076530;28;20020;-63
2021/06/13 10:00:39;;;;;;;7.38;2.38;;;24.30;47.10;;;;;;5072893;28;20031;-63
2021/06/13 10:03:25;;;;;;;4.65;1.83;;;24.50;48.10;;;;;;5073233;28;20390;-64
2021/06/13 10:05:55;;;;;;;5.38;2.00;;;24.80;48.40;;;;;;5079582;28;20032;-63
2021/06/13 10:08:20;;;;;;;9.93;2.45;;;25.00;47.10;;;;;;5091744;28;20016;-63
2021/06/13 10:10:46;;;;;;;9.45;2.67;;;25.00;46.10;;;;;;5075949;28;20394;-64
2021/06/13 10:13:11;;;;;;;5.40;2.28;;;25.10;46.80;;;;;;5085445;28;20489;-63
2021/06/13 10:15:37;;;;;;;7.70;2.22;;;25.20;45.50;;;;;;5084393;28;20039;-64
2021/06/13 10:18:12;;;;;;;7.50;2.20;;;25.30;45.60;;;;;;5073206;28;20509;-62
2021/06/13 10:20:38;;;;;;;8.05;2.35;;;25.30;45.60;;;;;;5082567;28;20035;-64
2021/06/13 10:23:04;;;;;;;18.42;8.60;;;25.40;46.10;;;;;;5080017;28;20037;-64
2021/06/13 10:25:30;;;;;;;69.95;39.88;;;25.50;45.80;;;;;;5078018;28;20032;-63
2021/06/13 10:27:58;;;;;;;64.60;35.35;;;25.50;45.80;;;;;;5078243;28;20025;-64
2021/06/13 10:30:24;;;;;;;84.38;43.58;;;25.60;45.60;;;;;;5071269;28;20114;-63
2021/06/13 10:32:50;;;;;;;78.47;40.63;;;25.70;45.90;;;;;;5071534;28;20021;-63
2021/06/13 10:35:16;;;;;;;68.72;38.33;;;25.80;45.40;;;;;;5072290;28;20056;-63
2021/06/13 10:37:42;;;;;;;58.97;33.70;;;25.80;45.40;;;;;;5072200;28;20056;-63
2021/06/13 10:40:08;;;;;;;56.95;31.25;;;25.90;45.90;;;;;;5075181;28;20032;-63
2021/06/13 10:42:37;;;;;;;57.67;29.27;;;26.00;45.70;;;;;;5072277;28;20031;-63
2021/06/13 10:45:03;;;;;;;45.15;26.20;;;26.00;45.00;;;;;;5072166;28;20078;-63
2021/06/13 10:47:30;;;;;;;36.35;19.52;;;25.90;44.90;;;;;;5073461;28;20055;-60
2021/06/13 10:49:55;;;;;;;37.30;21.50;;;25.90;44.40;;;;;;5072404;28;20028;-63
2021/06/13 10:52:24;;;;;;;48.88;24.33;;;26.00;45.00;;;;;;5076875;28;20103;-63
2021/06/13 10:54:52;;;;;;;40.33;23.15;;;26.00;45.90;;;;;;5076165;28;20549;-64
2021/06/13 10:57:18;;;;;;;41.50;22.98;;;26.00;46.00;;;;;;5073023;28;20031;-63
2021/06/13 10:59:55;;;;;;;40.22;21.27;;;26.00;46.60;;;;;;5071964;28;20029;-63
2021/06/13 11:02:23;;;;;;;35.20;20.02;;;26.00;46.90;;;;;;5069869;28;20025;-63
2021/06/13 11:05:02;;;;;;;41.50;19.60;;;25.90;47.00;;;;;;5067568;28;20070;-63
2021/06/13 11:07:49;;;;;;;31.23;17.75;;;25.90;47.10;;;;;;5073029;22;20044;-70
2021/06/13 11:12:55;;;;;;;30.73;15.38;;;25.80;47.70;;;;;;5045502;28;20155;-67
2021/06/13 11:18:00;;;;;;;25.77;14.77;;;25.70;48.20;;;;;;5065603;28;20032;-70
2021/06/13 11:20:50;;;;;;;26.70;14.50;;;25.70;48.30;;;;;;5058960;28;20025;-69
2021/06/13 11:23:21;;;;;;;30.88;13.90;;;25.40;49.10;;;;;;5060025;28;20060;-69
2021/06/13 11:25:48;;;;;;;25.27;12.65;;;25.30;49.40;;;;;;5060822;28;20039;-70
2021/06/13 11:28:31;;;;;;;21.80;12.27;;;25.10;50.00;;;;;;5070189;28;20059;-69
2021/06/13 11:31:08;;;;;;;21.50;11.10;;;24.50;51.40;;;;;;5070298;28;20021;-67
2021/06/13 11:33:49;;;;;;;22.27;11.15;;;24.00;52.60;;;;;;5068883;28;20025;-68
2021/06/13 11:36:15;;;;;;;22.02;10.80;;;23.70;53.60;;;;;;5061991;28;20017;-68
2021/06/13 11:38:45;;;;;;;18.45;9.05;;;23.50;54.10;;;;;;5065405;28;20032;-68
2021/06/13 11:41:25;;;;;;;17.23;8.82;;;23.40;54.50;;;;;;5062744;28;20465;-67
2021/06/13 11:43:51;;;;;;;18.90;8.95;;;23.20;55.10;;;;;;5054837;28;20025;-67
2021/06/13 11:46:34;;;;;;;18.63;9.38;;;23.20;55.70;;;;;;5067677;28;20032;-71
2021/06/13 11:49:01;;;;;;;15.20;7.88;;;23.20;55.70;;;;;;5061253;28;20107;-68
2021/06/13 11:51:28;;;;;;;16.02;8.00;;;23.10;55.40;;;;;;5068547;28;20120;-70
2021/06/13 11:53:59;;;;;;;13.43;5.85;;;23.10;55.30;;;;;;5065654;28;20064;-70
2021/06/13 11:56:34;;;;;;;14.98;6.07;;;23.00;53.60;;;;;;5067679;28;20033;-68
2021/06/13 11:59:18;;;;;;;10.80;5.45;;;22.90;53.30;;;;;;5068745;28;20063;-70
2021/06/13 12:01:53;;;;;;;11.70;4.78;;;22.90;53.10;;;;;;5066904;28;20024;-68
2021/06/13 12:04:19;;;;;;;11.25;5.07;;;22.80;52.90;;;;;;5060250;28;20589;-68
2021/06/13 12:06:45;;;;;;;10.07;4.10;;;22.70;52.00;;;;;;5059541;28;20036;-68
2021/06/13 12:09:16;;;;;;;8.35;3.97;;;22.60;51.70;;;;;;5059247;28;20095;-66
2021/06/13 12:11:52;;;;;;;9.65;4.07;;;22.60;52.10;;;;;;5065564;28;20436;-68
2021/06/13 12:14:29;;;;;;;11.13;4.03;;;22.60;51.80;;;;;;5058506;28;20021;-69
2021/06/13 12:16:57;;;;;;;9.15;3.80;;;22.70;51.80;;;;;;5069796;28;20028;-68
2021/06/13 12:19:33;;;;;;;9.80;3.78;;;22.70;52.00;;;;;;5068770;28;20378;-68
2021/06/13 12:27:27;;;;;;;8.35;3.00;;;22.50;52.40;;;;;;5059535;28;20024;-67
2021/06/13 12:30:06;;;;;;;7.45;2.92;;;22.60;52.10;;;;;;5069359;28;20059;-67
2021/06/13 12:32:33;;;;;;;11.40;3.45;;;22.60;51.00;;;;;;5071081;28;20017;-67
2021/06/13 12:35:13;;;;;;;7.35;2.70;;;22.40;50.20;;;;;;5070508;28;20024;-69
2021/06/13 12:37:54;;;;;;;6.70;2.90;;;22.30;49.70;;;;;;5070929;28;20028;-69
2021/06/13 12:40:19;;;;;;;6.45;2.63;;;22.30;50.10;;;;;;5062420;28;20035;-72
2021/06/13 12:42:46;;;;;;;12.43;3.47;;;22.30;49.70;;;;;;5049834;28;20021;-69
2021/06/13 12:45:14;;;;;;;6.55;2.80;;;22.20;49.90;;;;;;5055931;28;20028;-67
2021/06/13 12:47:41;;;;;;;7.53;2.63;;;22.20;48.60;;;;;;5069668;28;20035;-68
2021/06/13 12:50:08;;;;;;;8.45;2.63;;;22.20;48.90;;;;;;5068509;28;20493;-73
2021/06/13 12:52:36;;;;;;;7.18;2.60;;;22.10;48.80;;;;;;5070540;28;20025;-68
2021/06/13 12:55:06;;;;;;;7.47;2.53;;;21.80;49.10;;;;;;5070556;28;20009;-64
2021/06/13 12:57:33;;;;;;;6.93;2.67;;;21.80;47.70;;;;;;5072368;28;20122;-71
2021/06/13 12:59:59;;;;;;;5.85;2.10;;;21.80;47.90;;;;;;5061966;28;20025;-69
2021/06/13 13:02:24;;;;;;;6.63;2.50;;;21.90;48.10;;;;;;5074427;28;20486;-66
2021/06/13 13:04:53;;;;;;;5.85;2.22;;;21.90;48.20;;;;;;5074400;28;20025;-67
2021/06/13 13:07:36;;;;;;;8.60;2.75;;;21.90;48.00;;;;;;5073817;28;20032;-69
2021/06/13 13:10:08;;;;;;;6.95;2.42;;;21.90;47.30;;;;;;5073393;28;20027;-68
2021/06/13 13:12:35;;;;;;;5.45;2.22;;;21.90;47.00;;;;;;5074346;28;20125;-69
2021/06/13 13:15:29;;;;;;;7.18;2.25;;;21.80;46.90;;;;;;5074106;28;20024;-68
2021/06/13 13:18:11;;;;;;;7.90;2.40;;;21.80;47.10;;;;;;5074118;28;20108;-69
2021/06/13 13:20:37;;;;;;;7.32;2.40;;;21.90;47.60;;;;;;5073560;28;20036;-67
2021/06/13 13:23:16;;;;;;;7.40;2.60;;;22.00;47.70;;;;;;5061151;28;20025;-70
2021/06/13 13:25:48;;;;;;;6.60;2.40;;;22.00;47.90;;;;;;5064493;28;20393;-66
2021/06/13 13:28:28;;;;;;;7.10;2.40;;;22.00;47.90;;;;;;5072461;28;20052;-67
2021/06/13 13:31:12;;;;;;;6.35;2.38;;;22.00;47.90;;;;;;5073501;28;20078;-64
2021/06/13 13:33:39;;;;;;;6.72;2.08;;;21.90;47.60;;;;;;5071569;28;20070;-68
2021/06/13 13:36:10;;;;;;;6.22;2.30;;;21.90;47.90;;;;;;5073109;28;20100;-67
2021/06/13 13:38:38;;;;;;;6.50;2.58;;;21.90;47.90;;;;;;5071572;28;20025;-68
2021/06/13 13:41:04;;;;;;;7.63;2.20;;;22.00;47.50;;;;;;5058721;28;20033;-68
2021/06/13 13:43:30;;;;;;;6.60;2.40;;;22.10;47.20;;;;;;5072321;28;20028;-69
2021/06/13 13:45:56;;;;;;;5.80;2.40;;;22.10;47.60;;;;;;5061146;28;20059;-68
2021/06/13 13:48:26;;;;;;;7.28;2.50;;;22.10;48.10;;;;;;5053881;28;20025;-68
2021/06/13 13:50:59;;;;;;;9.57;2.83;;;22.20;47.20;;;;;;5053446;28;20422;-68
2021/06/13 13:53:38;;;;;;;10.07;3.58;;;22.20;47.30;;;;;;5068311;28;20027;-68
2021/06/13 13:56:10;;;;;;;16.00;6.78;;;22.10;47.70;;;;;;5073600;28;20025;-68
2021/06/13 13:58:36;;;;;;;39.42;14.98;;;22.00;48.10;;;;;;5073183;28;20052;-68
2021/06/13 14:01:02;;;;;;;34.40;14.00;;;22.10;48.50;;;;;;5062343;28;20068;-68
2021/06/13 14:03:32;;;;;;;29.50;11.25;;;22.10;48.30;;;;;;5053988;28;20029;-67
2021/06/13 14:06:00;;;;;;;21.98;10.07;;;22.10;48.30;;;;;;5073125;28;20052;-68
2021/06/13 14:08:25;;;;;;;19.48;8.02;;;22.00;48.50;;;;;;5073112;28;20040;-68
2021/06/13 14:10:52;;;;;;;11.30;4.40;;;22.00;48.30;;;;;;5072701;28;20032;-71
2021/06/13 14:13:19;;;;;;;8.45;3.45;;;21.90;47.30;;;;;;5072704;28;20021;-69
2021/06/13 14:15:44;;;;;;;10.23;4.57;;;21.90;47.60;;;;;;5072152;28;20024;-68
2021/06/13 14:18:10;;;;;;;11.23;4.13;;;22.00;48.20;;;;;;5072653;28;20499;-69
2021/06/13 14:20:36;;;;;;;7.78;2.70;;;22.10;48.40;;;;;;5070023;28;20389;-70
2021/06/13 14:23:03;;;;;;;7.70;2.50;;;22.00;47.20;;;;;;5068559;28;20020;-67
2021/06/13 14:25:29;;;;;;;6.65;2.83;;;22.00;47.50;;;;;;5072122;28;20036;-67
2021/06/13 14:27:54;;;;;;;9.63;3.10;;;21.90;47.60;;;;;;5072556;28;20036;-69
2021/06/13 14:30:21;;;;;;;7.82;2.28;;;22.00;47.40;;;;;;5072240;28;20449;-66
2021/06/13 14:32:48;;;;;;;9.05;2.80;;;21.90;47.10;;;;;;5072268;28;20120;-68
2021/06/13 14:35:14;;;;;;;6.43;2.42;;;21.90;47.50;;;;;;5060208;28;20032;-64
2021/06/13 14:37:40;;;;;;;6.97;2.35;;;22.20;48.00;;;;;;5051514;28;20029;-67
2021/06/13 14:40:10;;;;;;;7.32;2.72;;;22.20;47.60;;;;;;5060029;28;20024;-67
2021/06/13 14:42:36;;;;;;;5.68;2.50;;;22.10;47.80;;;;;;5072456;28;20079;-66
2021/06/13 14:45:02;;;;;;;5.20;2.40;;;22.20;48.10;;;;;;5071950;28;20056;-68
2021/06/13 14:47:27;;;;;;;6.95;2.75;;;22.20;48.00;;;;;;5072097;28;20075;-66
2021/06/13 14:49:53;;;;;;;6.20;2.58;;;22.20;48.10;;;;;;5072124;28;20428;-70
2021/06/13 14:52:18;;;;;;;7.97;2.92;;;22.30;48.00;;;;;;5070835;28;20024;-69
2021/06/13 14:54:44;;;;;;;9.07;2.55;;;22.30;49.20;;;;;;5070676;28;20442;-69
2021/06/13 14:57:10;;;;;;;7.97;2.60;;;22.30;49.80;;;;;;5070683;28;20020;-69
2021/06/13 14:59:37;;;;;;;6.28;2.28;;;22.30;50.20;;;;;;5070172;28;20059;-69
2021/06/13 15:02:03;;;;;;;7.03;3.05;;;22.30;50.70;;;;;;5071976;28;20027;-69
2021/06/13 15:04:29;;;;;;;5.72;2.28;;;22.30;51.30;;;;;;5069250;28;20025;-68
2021/06/13 15:06:55;;;;;;;5.53;2.10;;;22.30;51.70;;;;;;5071621;28;20393;-68
2021/06/13 15:09:20;;;;;;;7.47;2.53;;;22.20;51.60;;;;;;5074033;28;20029;-70
2021/06/13 15:11:46;;;;;;;6.40;2.38;;;22.30;52.40;;;;;;5066837;28;20020;-70
2021/06/13 15:14:11;;;;;;;6.57;2.15;;;22.30;52.30;;;;;;5069738;28;20033;-73
2021/06/13 15:16:37;;;;;;;9.43;2.95;;;22.20;52.20;;;;;;5070447;28;20074;-69
2021/06/13 15:19:03;;;;;;;6.32;2.72;;;22.10;52.70;;;;;;5070482;28;20031;-70
2021/06/13 15:21:30;;;;;;;8.65;2.03;;;22.20;52.90;;;;;;5071508;28;20614;-69
2021/06/13 15:23:56;;;;;;;8.43;2.10;;;22.20;53.10;;;;;;5070716;28;20021;-69
2021/06/13 15:26:22;;;;;;;9.25;2.65;;;22.20;53.10;;;;;;5071772;28;20035;-69
2021/06/13 15:28:47;;;;;;;7.35;2.25;;;22.30;53.10;;;;;;5066495;28;20024;-69
2021/06/13 15:31:13;;;;;;;6.05;2.17;;;22.20;53.40;;;;;;5067840;28;20051;-67
2021/06/13 15:33:38;;;;;;;6.70;2.13;;;22.20;54.00;;;;;;5069332;28;20038;-68
2021/06/13 15:36:04;;;;;;;7.32;2.47;;;22.20;53.90;;;;;;5070999;28;20032;-69
2021/06/13 15:38:30;;;;;;;11.23;2.83;;;22.30;54.10;;;;;;5064534;28;20057;-70
2021/06/13 15:40:55;;;;;;;9.73;3.22;;;22.40;54.10;;;;;;5071265;28;20035;-69
2021/06/13 15:43:23;;;;;;;9.02;2.50;;;22.30;54.00;;;;;;5071133;28;20032;-69
2021/06/13 15:45:49;;;;;;;9.07;2.17;;;22.20;54.20;;;;;;5070833;28;20078;-67
2021/06/13 15:48:17;;;;;;;10.68;2.53;;;22.30;54.80;;;;;;5063708;28;20498;-67
2021/06/13 15:50:43;;;;;;;12.93;3.30;;;22.30;55.80;;;;;;5061195;28;20033;-68
2021/06/13 15:53:09;;;;;;;12.35;2.95;;;22.30;55.00;;;;;;5062966;28;20031;-69
2021/06/13 15:55:44;;;;;;;11.10;2.78;;;22.20;53.80;;;;;;5070060;28;20029;-69
2021/06/13 15:58:14;;;;;;;11.75;2.80;;;22.20;54.30;;;;;;5068889;28;20029;-67
2021/06/13 16:00:40;;;;;;;7.75;2.80;;;22.30;54.80;;;;;;5065039;28;20021;-67
2021/06/13 16:03:06;;;;;;;14.25;2.47;;;22.30;53.30;;;;;;5067660;28;20028;-69
2021/06/13 16:05:32;;;;;;;7.57;2.65;;;22.20;53.10;;;;;;5071109;28;20048;-66
2021/06/13 16:07:58;;;;;;;9.20;2.67;;;22.20;52.80;;;;;;5060357;28;20490;-68
2021/06/13 16:10:24;;;;;;;8.18;3.03;;;22.30;51.80;;;;;;5061644;28;20029;-69
2021/06/13 16:12:50;;;;;;;8.90;2.90;;;22.20;52.40;;;;;;5069291;28;20029;-68
2021/06/13 16:15:19;;;;;;;7.88;2.85;;;22.30;50.60;;;;;;5069874;28;20021;-70
2021/06/13 16:17:46;;;;;;;7.15;2.55;;;22.30;50.50;;;;;;5071183;28;20390;-69
2021/06/13 16:20:13;;;;;;;6.07;2.60;;;22.30;50.90;;;;;;5063493;28;20020;-69
2021/06/13 16:22:39;;;;;;;6.47;2.30;;;22.40;52.00;;;;;;5065386;28;20056;-67
2021/06/13 16:25:06;;;;;;;7.38;2.53;;;22.30;50.20;;;;;;5069998;28;20052;-69
2021/06/13 16:27:32;;;;;;;6.75;2.33;;;22.40;49.50;;;;;;5069866;28;20029;-68
2021/06/13 16:29:57;;;;;;;9.55;2.60;;;22.30;48.80;;;;;;5071011;28;20559;-66
2021/06/13 16:32:24;;;;;;;5.45;2.33;;;22.30;48.50;;;;;;5073608;28;20449;-68
2021/06/13 16:34:50;;;;;;;6.88;2.45;;;22.20;48.80;;;;;;5063260;28;20071;-68
2021/06/13 16:37:16;;;;;;;7.07;2.40;;;22.30;50.50;;;;;;5053752;28;20036;-68
2021/06/13 16:39:42;;;;;;;8.07;2.35;;;22.20;49.10;;;;;;5063525;28;20028;-73
2021/06/13 16:42:07;;;;;;;9.13;2.45;;;22.30;49.10;;;;;;5071729;28;20090;-69
2021/06/13 16:44:36;;;;;;;8.48;2.78;;;22.30;50.20;;;;;;5073681;28;20259;-73
2021/06/13 16:47:02;;;;;;;11.90;3.00;;;22.30;49.90;;;;;;5070258;28;20036;-72
2021/06/13 16:49:28;;;;;;;11.80;2.95;;;22.40;50.00;;;;;;5068437;28;20031;-69
2021/06/13 16:51:54;;;;;;;11.85;2.70;;;22.40;51.10;;;;;;5053429;28;20104;-69
2021/06/13 16:54:19;;;;;;;14.68;3.30;;;22.40;52.10;;;;;;5053802;28;20029;-68
2021/06/13 16:56:45;;;;;;;11.68;3.03;;;22.40;52.00;;;;;;5073626;28;20016;-68
2021/06/13 16:59:10;;;;;;;11.48;2.53;;;22.40;51.90;;;;;;5071565;28;20494;-69
2021/06/13 17:01:36;;;;;;;11.05;2.83;;;22.40;51.70;;;;;;5072748;28;20025;-70
2021/06/13 17:04:02;;;;;;;17.42;3.28;;;22.30;52.20;;;;;;5073669;28;20045;-69
2021/06/13 17:06:27;;;;;;;13.60;2.50;;;22.30;52.30;;;;;;5067041;28;20048;-69
2021/06/13 17:08:53;;;;;;;11.32;2.40;;;22.30;52.60;;;;;;5074477;28;20020;-69
2021/06/13 17:11:19;;;;;;;10.82;2.70;;;22.20;52.50;;;;;;5073627;28;20397;-68
2021/06/13 17:13:44;;;;;;;13.02;2.85;;;22.20;52.50;;;;;;5063264;28;20041;-69
2021/06/13 17:16:10;;;;;;;22.95;4.00;;;22.30;53.00;;;;;;5073191;28;20558;-69
2021/06/13 17:18:35;;;;;;;14.80;2.70;;;22.30;53.30;;;;;;5074241;28;20025;-69
2021/06/13 17:21:01;;;;;;;11.35;3.00;;;22.30;53.50;;;;;;5072645;28;20024;-68
2021/06/13 17:23:32;;;;;;;10.98;2.80;;;22.30;53.80;;;;;;5060714;28;20029;-67
2021/06/13 17:25:59;;;;;;;10.97;2.60;;;22.30;53.70;;;;;;5054395;28;20479;-67
2021/06/13 17:28:24;;;;;;;11.30;2.70;;;22.20;53.80;;;;;;5070546;28;20378;-67
2021/06/13 17:30:50;;;;;;;9.23;3.00;;;22.30;54.00;;;;;;5065138;28;20070;-68
2021/06/13 17:33:16;;;;;;;8.88;2.47;;;22.30;54.30;;;;;;5066406;28;20060;-67
2021/06/13 17:35:56;;;;;;;9.65;2.75;;;22.30;54.40;;;;;;5073009;28;20012;-67
2021/06/13 17:38:22;;;;;;;8.98;3.22;;;22.30;54.40;;;;;;5073508;28;20036;-66
2021/06/13 17:40:48;;;;;;;12.38;3.55;;;22.30;54.50;;;;;;5070851;28;20190;-68
2021/06/13 17:43:14;;;;;;;11.77;3.28;;;22.30;55.00;;;;;;5073188;28;20027;-68
2021/06/13 17:45:42;;;;;;;13.23;3.33;;;22.30;55.30;;;;;;5072134;28;20028;-66
2021/06/13 17:48:08;;;;;;;12.45;3.53;;;22.30;54.70;;;;;;5067824;28;20133;-66
2021/06/13 17:50:34;;;;;;;9.30;3.00;;;22.20;53.10;;;;;;5073300;28;20036;-69
2021/06/13 17:52:59;;;;;;;14.35;3.00;;;22.30;53.40;;;;;;5064630;28;20021;-68
2021/06/13 17:55:26;;;;;;;11.00;2.83;;;22.20;53.50;;;;;;5060113;28;20513;-68
2021/06/13 17:57:53;;;;;;;9.98;2.78;;;22.20;52.20;;;;;;5063905;28;20020;-69
2021/06/13 18:00:19;;;;;;;7.80;2.67;;;22.10;52.50;;;;;;5063731;28;20029;-68
2021/06/13 18:02:44;;;;;;;8.77;2.70;;;22.10;52.10;;;;;;5063621;28;20055;-70
2021/06/13 18:05:11;;;;;;;6.72;2.55;;;22.20;52.80;;;;;;5071669;28;20028;-68
2021/06/13 18:07:37;;;;;;;8.35;2.83;;;22.10;51.20;;;;;;5054429;28;20037;-69
2021/06/13 18:10:03;;;;;;;7.40;3.00;;;22.00;51.10;;;;;;5059208;28;20076;-68
2021/06/13 18:12:32;;;;;;;24.80;15.32;;;22.10;51.40;;;;;;5073271;28;20048;-69
2021/06/13 18:14:58;;;;;;;20.05;12.90;;;22.10;51.20;;;;;;5072622;28;20021;-69
2021/06/13 18:17:24;;;;;;;19.15;11.00;;;22.10;50.90;;;;;;5073183;28;20020;-69
2021/06/13 18:19:50;;;;;;;15.82;9.25;;;22.10;50.30;;;;;;5072910;28;20417;-69
2021/06/13 18:22:15;;;;;;;20.90;9.85;;;22.10;50.70;;;;;;5064769;28;20041;-69
2021/06/13 18:24:41;;;;;;;15.18;6.47;;;22.10;51.70;;;;;;5071719;28;20124;-69
2021/06/13 18:27:07;;;;;;;10.52;5.10;;;22.10;52.10;;;;;;5072688;28;20029;-68
2021/06/13 18:29:33;;;;;;;9.82;3.83;;;22.10;51.80;;;;;;5072759;28;20081;-72
2021/06/13 18:31:59;;;;;;;11.60;3.58;;;22.20;52.00;;;;;;5065334;28;20024;-69
2021/06/13 18:34:24;;;;;;;7.60;2.55;;;22.10;51.80;;;;;;5065848;28;20504;-71
2021/06/13 18:36:50;;;;;;;8.95;2.70;;;22.10;51.30;;;;;;5071608;28;20033;-68
2021/06/13 18:39:16;;;;;;;7.57;2.88;;;22.10;51.40;;;;;;5069264;28;20023;-68
2021/06/13 18:41:42;;;;;;;8.38;2.60;;;22.10;51.50;;;;;;5072513;28;20032;-68
2021/06/13 18:44:08;;;;;;;7.85;2.38;;;22.10;51.40;;;;;;5072505;28;20114;-68
2021/06/13 18:46:34;;;;;;;6.78;2.63;;;22.10;51.40;;;;;;5078185;28;20196;-68
2021/06/13 18:49:00;;;;;;;9.27;3.15;;;22.00;51.50;;;;;;5055011;28;20569;-68
2021/06/13 18:51:26;;;;;;;8.50;2.80;;;22.00;51.50;;;;;;5089237;28;20059;-68
2021/06/13 18:53:51;;;;;;;7.95;2.50;;;22.00;51.30;;;;;;5071024;28;20027;-67
2021/06/13 18:56:22;;;;;;;7.07;2.95;;;22.00;51.30;;;;;;5071627;28;20024;-67
2021/06/13 18:58:49;;;;;;;6.07;2.38;;;22.00;51.30;;;;;;5072181;28;20017;-68
2021/06/13 19:01:15;;;;;;;6.88;2.40;;;21.90;51.20;;;;;;5071038;28;20085;-68
2021/06/13 19:03:41;;;;;;;6.25;2.72;;;21.90;50.90;;;;;;5068566;28;20028;-69
2021/06/13 19:06:08;;;;;;;7.88;2.40;;;21.90;51.00;;;;;;5065550;28;20477;-68
2021/06/13 19:08:33;;;;;;;5.57;2.22;;;21.90;51.30;;;;;;5068805;28;20028;-68
2021/06/13 19:10:59;;;;;;;8.40;2.50;;;21.80;51.50;;;;;;5068973;28;20111;-67
2021/06/13 19:13:25;;;;;;;6.20;1.92;;;21.80;51.40;;;;;;5071940;28;20020;-69
2021/06/13 19:15:51;;;;;;;6.60;2.50;;;21.80;51.60;;;;;;5071764;28;20035;-67
2021/06/13 19:18:17;;;;;;;6.47;2.60;;;21.80;51.70;;;;;;5071764;28;20028;-69
2021/06/13 19:20:43;;;;;;;8.57;2.50;;;21.80;51.50;;;;;;5062282;28;20029;-68
2021/06/13 19:23:08;;;;;;;5.88;2.30;;;21.80;51.60;;;;;;5071430;28;20024;-67
2021/06/13 19:25:35;;;;;;;6.85;2.83;;;21.80;51.60;;;;;;5067746;28;20024;-69
2021/06/13 19:28:02;;;;;;;7.45;2.35;;;21.80;52.00;;;;;;5060093;28;20073;-71
2021/06/13 19:30:31;;;;;;;8.10;2.20;;;21.90;52.30;;;;;;5062186;28;20530;-71
2021/06/13 19:32:58;;;;;;;7.60;2.45;;;21.90;52.50;;;;;;5070364;28;20016;-68
2021/06/13 19:35:24;;;;;;;6.65;2.50;;;22.00;52.40;;;;;;5069193;28;20024;-71
2021/06/13 19:37:52;;;;;;;7.15;2.40;;;22.00;52.80;;;;;;5068949;28;20029;-69
2021/06/13 19:40:18;;;;;;;7.47;2.70;;;22.00;53.20;;;;;;5069370;28;20031;-71
2021/06/13 19:42:44;;;;;;;12.82;2.75;;;22.00;53.40;;;;;;5069379;28;20024;-69
2021/06/13 19:45:10;;;;;;;6.65;2.60;;;22.00;53.70;;;;;;5070336;28;20077;-71
2021/06/13 19:47:37;;;;;;;5.70;2.35;;;22.00;53.30;;;;;;5071058;28;20477;-70
2021/06/13 19:50:05;;;;;;;6.07;2.40;;;21.90;53.80;;;;;;5070327;28;20029;-69
2021/06/13 19:52:32;;;;;;;7.43;2.50;;;21.90;54.40;;;;;;5071643;28;20012;-69
2021/06/13 19:55:01;;;;;;;7.82;2.95;;;21.80;54.70;;;;;;5070602;28;20481;-69
2021/06/13 19:57:28;;;;;;;5.60;2.40;;;21.80;55.00;;;;;;5071576;28;20078;-69
2021/06/13 19:59:54;;;;;;;5.80;2.50;;;21.80;55.10;;;;;;5069660;28;20095;-69
2021/06/13 20:02:19;;;;;;;7.93;2.60;;;21.80;55.20;;;;;;5064804;28;20120;-70
2021/06/13 20:04:45;;;;;;;6.43;2.70;;;21.70;55.10;;;;;;5069465;28;20495;-68
2021/06/13 20:07:10;;;;;;;6.10;2.40;;;21.70;55.30;;;;;;5059432;28;20556;-68
2021/06/13 20:09:36;;;;;;;6.35;2.30;;;21.70;55.30;;;;;;5071285;28;20027;-70
2021/06/13 20:12:02;;;;;;;7.25;2.30;;;21.60;55.40;;;;;;5071506;28;20016;-69
2021/06/13 20:14:28;;;;;;;7.20;2.00;;;21.60;55.30;;;;;;5069281;28;20400;-70
2021/06/13 20:16:53;;;;;;;6.30;2.28;;;21.60;55.50;;;;;;5065410;28;20020;-69
2021/06/13 20:19:20;;;;;;;5.28;2.40;;;21.50;55.40;;;;;;5071407;28;20493;-70
2021/06/13 20:21:46;;;;;;;7.68;2.28;;;21.60;55.70;;;;;;5067902;28;20036;-69
2021/06/13 20:24:11;;;;;;;6.00;2.38;;;21.60;55.70;;;;;;5057995;28;20028;-68
2021/06/13 20:26:38;;;;;;;6.22;2.28;;;21.50;55.60;;;;;;5071357;28;20028;-70
2021/06/13 20:29:05;;;;;;;7.75;2.40;;;21.50;55.60;;;;;;5068755;28;20040;-70
2021/06/13 20:31:35;;;;;;;7.53;2.92;;;21.50;55.80;;;;;;5071337;28;20017;-70
2021/06/13 20:34:01;;;;;;;6.53;2.38;;;21.50;55.90;;;;;;5070893;28;20009;-69
2021/06/13 20:36:27;;;;;;;5.35;2.25;;;21.50;55.90;;;;;;5068964;28;20043;-69
2021/06/13 20:38:52;;;;;;;7.72;2.40;;;21.50;55.80;;;;;;5059235;28;20024;-69
2021/06/13 20:41:18;;;;;;;6.45;2.35;;;21.40;55.70;;;;;;5070387;28;20031;-69
2021/06/13 20:43:43;;;;;;;6.57;2.30;;;21.40;55.80;;;;;;5061325;28;20023;-69
2021/06/13 20:46:09;;;;;;;7.10;2.97;;;21.40;55.80;;;;;;5071137;28;20035;-69
2021/06/13 20:48:34;;;;;;;6.47;2.47;;;21.40;55.90;;;;;;5070488;28;20362;-69
2021/06/13 20:51:00;;;;;;;6.05;2.30;;;21.40;55.50;;;;;;5070949;28;20373;-70
2021/06/13 20:53:26;;;;;;;6.00;2.22;;;21.30;55.60;;;;;;5070324;28;20029;-68
2021/06/13 20:55:53;;;;;;;8.52;2.60;;;21.40;55.40;;;;;;5067714;28;20020;-69
2021/06/13 20:58:19;;;;;;;9.75;2.75;;;21.40;56.00;;;;;;5063218;28;20052;-70
2021/06/13 21:00:44;;;;;;;7.15;2.50;;;21.40;55.50;;;;;;5052207;28;20061;-70
2021/06/13 21:03:10;;;;;;;7.43;2.45;;;21.40;56.00;;;;;;5050902;28;20104;-69
2021/06/13 21:05:35;;;;;;;7.53;2.20;;;21.30;55.80;;;;;;5049994;28;20036;-70
2021/06/13 21:08:01;;;;;;;8.55;2.50;;;21.30;55.90;;;;;;5049866;28;20037;-70